»·PEaware :: YV153T KGEG-KYKM

YV153T :: KGEG-KYKM

FLIGHT INFORMATION

Flight Status: Arrived
Operator: Privately registered:
Venezuela
More flights under this callsign
Pilot: Jose A. (17505)
Aircraft: MCDONNELL-DOUGLAS MD-88
(MD88)
More flights by this aircraft type
Origin: KGEG Spokane Intl
United States
Destination: KYKM Yakima Air Term/Mcallister
United States
More flights between these airports :: More routes between these airports
Route: +GEG3 YKM
File this flight plan on PilotEdge
Remarks: PBN / B1C1D2O1T1 DOF / 180328 REG / YV153T RVR / 550 OPR / ASERCA
Altitude:
(Current/Filed)
26,000ft
Speed:
(Current/Filed)
456kts
Departed: 27-Mar-18 05:53 PM
Arrived: 27-Mar-18 06:27 PM
Distance/Time
Traveled:
138nm/0:34
Distance/Time
To Go:
Arrived

Flight Plot

Page will automatically refresh every two minutes.

Flight plan parsing failed; only flown route is shown


Map Options




Map Legend


Flown Route
Filed Route
Departure Airport
Arrival Airport
Navaid (VOR, NDB)
Fix

Horizontal Profiles

Position Reports

Time Latitude Longitude Heading Altitude Ground
Speed
27-Mar-18 17:13 47.623274 -117.539808 0 2362ft 0kts
27-Mar-18 17:14 47.623274 -117.539808 0 2362ft 0kts
27-Mar-18 17:15 47.623274 -117.539808 0 2362ft 0kts
27-Mar-18 17:16 47.623274 -117.539808 0 2362ft 0kts
27-Mar-18 17:17 47.623274 -117.539808 0 2362ft 0kts
27-Mar-18 17:18 47.623274 -117.539808 0 2362ft 0kts
27-Mar-18 17:19 47.623274 -117.539808 0 2362ft 0kts
27-Mar-18 17:20 47.623274 -117.539808 0 2362ft 0kts
27-Mar-18 17:21 47.623274 -117.539808 0 2362ft 0kts
27-Mar-18 17:22 47.623274 -117.539808 0 2362ft 0kts
27-Mar-18 17:23 47.623274 -117.539808 0 2362ft 0kts
27-Mar-18 17:24 47.623274 -117.539808 0 2362ft 0kts
27-Mar-18 17:25 47.623274 -117.539808 0 2362ft 0kts
27-Mar-18 17:26 47.623274 -117.539808 0 2362ft 0kts
27-Mar-18 17:27 47.623274 -117.539808 0 2362ft 0kts
27-Mar-18 17:28 47.623274 -117.539808 0 2362ft 0kts
27-Mar-18 17:29 47.623274 -117.539808 0 2362ft 0kts
27-Mar-18 17:30 47.623274 -117.539808 0 2362ft 0kts
27-Mar-18 17:31 47.623274 -117.539808 0 2362ft 0kts
27-Mar-18 17:32 47.623274 -117.539808 0 2362ft 0kts
27-Mar-18 17:33 47.623274 -117.539808 0 2362ft 0kts
27-Mar-18 17:34 47.623274 -117.539808 0 2362ft 0kts
27-Mar-18 17:35 47.623274 -117.539808 0 2362ft 0kts
27-Mar-18 17:36 47.623274 -117.539808 0 2362ft 0kts
27-Mar-18 17:37 47.623274 -117.539808 0 2362ft 0kts
27-Mar-18 17:38 47.623274 -117.539808 0 2362ft 0kts
27-Mar-18 17:39 47.623274 -117.539808 0 2362ft 0kts
27-Mar-18 17:40 47.623274 -117.539808 0 2362ft 0kts
27-Mar-18 17:41 47.623274 -117.539808 0 2362ft 0kts
27-Mar-18 17:42 47.623274 -117.539808 0 2362ft 0kts
27-Mar-18 17:43 47.622761 -117.539747 331 2362ft 0kts
27-Mar-18 17:44 47.622761 -117.539747 331 2362ft 0kts
27-Mar-18 17:45 47.622785 -117.539756 345 2362ft 0kts
27-Mar-18 17:46 47.622856 -117.539636 88 2362ft 0kts
27-Mar-18 17:47 47.622802 -117.538491 99 2360ft 8kts
27-Mar-18 17:48 47.622697 -117.535129 45 2358ft 17kts
27-Mar-18 17:49 47.627080 -117.528538 44 2345ft 23kts
27-Mar-18 17:50 47.631048 -117.522563 45 2329ft 17kts
27-Mar-18 17:51 47.631550 -117.518980 135 2325ft 6kts
27-Mar-18 17:52 47.624692 -117.528093 225 2352ft 112kts
27-Mar-18 17:53 47.591224 -117.574486 218 3827ft 196kts
27-Mar-18 17:54 47.543130 -117.629947 218 6221ft 239kts
27-Mar-18 17:55 47.511169 -117.713592 245 9079ft 252kts
27-Mar-18 17:56 47.478406 -117.810325 248 11414ft 288kts
27-Mar-18 17:57 47.439188 -117.921710 249 13779ft 315kts
27-Mar-18 17:58 47.395496 -118.036504 243 16326ft 331kts
27-Mar-18 17:59 47.355225 -118.156197 252 18534ft 332kts
27-Mar-18 18:00 47.312549 -118.278804 252 20420ft 342kts
27-Mar-18 18:01 47.270398 -118.398881 251 21710ft 359kts
27-Mar-18 18:02 47.223367 -118.533049 251 22053ft 380kts
27-Mar-18 18:03 47.182503 -118.649912 251 22101ft 392kts
27-Mar-18 18:04 47.135737 -118.784061 251 22094ft 391kts
27-Mar-18 18:05 47.089779 -118.916243 252 21030ft 348kts
27-Mar-18 18:06 47.047008 -119.039933 252 19065ft 335kts
27-Mar-18 18:07 46.998994 -119.179213 252 16708ft 325kts
27-Mar-18 18:08 46.958903 -119.295851 251 14685ft 318kts
27-Mar-18 18:09 46.919918 -119.409602 250 12070ft 309kts
27-Mar-18 18:10 46.886521 -119.507050 250 10881ft 254kts
27-Mar-18 18:11 46.861168 -119.581539 249 9930ft 252kts
27-Mar-18 18:12 46.832025 -119.667093 249 9918ft 247kts
27-Mar-18 18:13 46.801041 -119.758682 246 9200ft 269kts
27-Mar-18 18:14 46.767444 -119.857717 245 8050ft 271kts
27-Mar-18 18:15 46.735793 -119.951351 243 6779ft 252kts
27-Mar-18 18:16 46.705127 -120.042037 244 5975ft 244kts
27-Mar-18 18:17 46.668517 -120.124878 219 6001ft 251kts
27-Mar-18 18:18 46.617589 -120.181510 218 5966ft 207kts
27-Mar-18 18:19 46.574930 -120.228334 218 5972ft 188kts
27-Mar-18 18:20 46.534498 -120.272510 218 5007ft 168kts
27-Mar-18 18:21 46.511843 -120.316549 292 3735ft 139kts
27-Mar-18 18:22 46.525552 -120.367723 284 3528ft 150kts
27-Mar-18 18:23 46.538736 -120.424094 288 2540ft 141kts
27-Mar-18 18:24 46.551723 -120.476035 287 1870ft 134kts
27-Mar-18 18:25 46.564503 -120.527380 288 1140ft 135kts
27-Mar-18 18:26 46.570658 -120.549383 18 1081ft 14kts
27-Mar-18 18:27 46.570976 -120.548642 102 1080ft 9kts
27-Mar-18 18:28 46.569591 -120.543030 110 1071ft 16kts
27-Mar-18 18:29 46.569643 -120.538919 1 1064ft 3kts
27-Mar-18 18:30 46.569668 -120.538918 1 1064ft 0kts

Navigation Log

Ident Type
Flight plan parsing failed, navigation log unavailable